PUEBLO AVIATION WEATHER

 


 

 

Check out the latest edition of "The Front" - A Regional Newsletter dedicated to Aviation Weather

Aviation Weather Center Standard Briefing 

 


 

 

Colorado Springs Airport(KCOS) Aviation Decision Support Information Page  

 

 

  Terminal Aerodrome Forecasts

Interactive TAF Java Tool

Plotted TAFs and/or Text TAFs

Text TAFs

Pueblo KPUB

000
FTUS45 KPUB 201120
TAFPUB
TAF
KPUB 201120Z 2012/2112 30011KT P6SM VCSH BKN070 OVC090
      TEMPO 2012/2016 -SHRA BKN035
     FM201800 03012KT P6SM VCSH SCT035 BKN070
     FM210300 VRB06KT P6SM FEW070 SCT150=
Colorado Springs KCOS
000
FTUS45 KPUB 201120
TAFCOS
TAF
KCOS 201120Z 2012/2112 33010KT P6SM SCT090 BKN120 BKN200
     FM201700 03012KT P6SM VCSH SCT040 BKN080
     FM210400 34007KT P6SM FEW080 SCT150=
Alamosa KALS

000
FTUS45 KPUB 201120
TAFALS
TAF
KALS 201120Z 2012/2112 VRB05KT P6SM VCSH BKN050 OVC080
     FM201700 01008KT P6SM VCSH SCT050 BKN080
     FM202200 01012KT P6SM VCSH SCT030 BKN050
     FM210300 VRB05KT P6SM FEW050 SCT100=
Denver KDEN

000
FTUS45 KBOU 201503 AAB
TAFDEN
TAF AMD
KDEN 201503Z 2015/2118 28007KT P6SM FEW090 SCT140
     FM201700 35009KT P6SM SCT090 BKN140
     FM202000 02012KT P6SM VCSH SCT080 BKN120
     FM210000 34010KT P6SM SCT120 BKN200
     FM210400 28008KT P6SM FEW140 SCT220
     FM211000 35009KT P6SM FEW060 SCT080
     FM211300 05013KT P6SM SCT040 BKN060
     FM211700 09008KT P6SM FEW090 SCT140=
  

 

Pilot Reports (PIREPs)

Aircraft Icing U.S. NESE
NCSC
NWSW
Sky Conditions U.S. NESE
NCSC
NWSW
Turbulence U.S. NESE
NCSC
NWSW

 

SOARING FORECAST

Experimental product for soaring guidance, Southern Front Range

 

 

 

METARS:

Pueblo


Colorado Springs


Denver

Alamosa


 

 


 

 

 

 

RADAR AND SATELLITE

radar
pueblo radar
 

 

Latest Radar from Pueblo
Click Image to Enlarge

 

IR Satellite
Colorado Infrared Satellite - Click to enlarge
Latest Colorado IR Satellite Image
Click Image to Enlarge
Vis Satellite
Colorado Visible Satellite - Click to enlarge
Latest Colorado Visible Satellite Image
Click Image to Enlarge

 

WATCHES AND WARNINGS

TEXT OF ALL COLORADO WARNINGS

 

Latest Watches And Warnings

 

 

CENTER WEATHER ADVISORIES

 

AIRMETS/SIGMETS

 

 

 


 

FORECAST DISCUSSION: FA

 

 


 

OBSERVED UPPER AIR WINDS

(COURTESY RAP/NCAR)

 

 


 

FORECAST UPPER AIR WINDS

 

 


 

SURFACE OBSERVATIONS

(COURTESY RAP/NCAR)

 

 

 :

 

NOTAMS:

https://www.notams.jcs.mil/geo/radiusForm.html

 

 

 

 

 

 

 

 

 

 

 

 

 

 

 

 


 

 

Constant Pressure Plots From the Storm Prediction Center

Link to the Sky Spotter Program Homepage

 

Other Aviation Links

NWS Aviation Weather Center

ADDS - Aviation Page
FAA Homepage

 


 

 

 

 

 

 

 

 

 

 

 

 

 

 

 

 

 

 

 

 

 

 

 

 

 

 

 

 

 

 

 

 

 

Plots of AIRMETS / SIGMETS

Text AIRMETS / SIGMETS by Center 

Interactive AIRMET/SIGMET Java Tool

 

 



USA.gov is the U.S. government's official web portal to all federal, state and local government web resources and services.